sensor_id;sensor_type;location;lat;lon;timestamp;temperature;humidity
23311;DHT22;11828;51.508;18.118;2023-06-22T00:00:55;36.20;43.00
23311;DHT22;11828;51.508;18.118;2023-06-22T00:03:31;36.20;42.90
23311;DHT22;11828;51.508;18.118;2023-06-22T00:05:57;36.20;42.90
23311;DHT22;11828;51.508;18.118;2023-06-22T00:08:23;36.20;42.80
23311;DHT22;11828;51.508;18.118;2023-06-22T00:10:49;36.10;42.80
23311;DHT22;11828;51.508;18.118;2023-06-22T00:13:16;36.00;42.90
23311;DHT22;11828;51.508;18.118;2023-06-22T00:15:43;36.00;42.90
23311;DHT22;11828;51.508;18.118;2023-06-22T00:18:10;36.00;43.00
23311;DHT22;11828;51.508;18.118;2023-06-22T00:20:38;36.00;43.00
23311;DHT22;11828;51.508;18.118;2023-06-22T00:23:06;36.00;42.90
23311;DHT22;11828;51.508;18.118;2023-06-22T00:25:35;35.90;42.80
23311;DHT22;11828;51.508;18.118;2023-06-22T00:28:03;36.00;42.90
23311;DHT22;11828;51.508;18.118;2023-06-22T00:30:30;36.00;42.80
23311;DHT22;11828;51.508;18.118;2023-06-22T00:32:57;36.00;42.70
23311;DHT22;11828;51.508;18.118;2023-06-22T00:35:24;35.90;42.60
23311;DHT22;11828;51.508;18.118;2023-06-22T00:37:56;35.90;42.70
23311;DHT22;11828;51.508;18.118;2023-06-22T00:40:31;35.80;42.70
23311;DHT22;11828;51.508;18.118;2023-06-22T00:42:59;35.80;42.80
23311;DHT22;11828;51.508;18.118;2023-06-22T00:45:26;35.80;43.00
23311;DHT22;11828;51.508;18.118;2023-06-22T00:47:53;35.80;43.10
23311;DHT22;11828;51.508;18.118;2023-06-22T00:50:23;35.70;43.10
23311;DHT22;11828;51.508;18.118;2023-06-22T00:52:52;35.70;43.00
23311;DHT22;11828;51.508;18.118;2023-06-22T00:55:20;35.70;43.00
23311;DHT22;11828;51.508;18.118;2023-06-22T00:57:48;35.70;43.00
23311;DHT22;11828;51.508;18.118;2023-06-22T01:00:15;35.70;42.90
23311;DHT22;11828;51.508;18.118;2023-06-22T01:02:46;35.70;42.80
23311;DHT22;11828;51.508;18.118;2023-06-22T01:05:18;35.70;42.90
23311;DHT22;11828;51.508;18.118;2023-06-22T01:16:43;35.60;43.20
23311;DHT22;11828;51.508;18.118;2023-06-22T01:19:46;35.60;42.90
23311;DHT22;11828;51.508;18.118;2023-06-22T01:22:27;35.50;43.00
23311;DHT22;11828;51.508;18.118;2023-06-22T01:30:38;35.40;42.70
23311;DHT22;11828;51.508;18.118;2023-06-22T01:33:05;35.40;42.70
23311;DHT22;11828;51.508;18.118;2023-06-22T01:35:32;35.40;42.70
23311;DHT22;11828;51.508;18.118;2023-06-22T01:37:59;35.40;42.80
23311;DHT22;11828;51.508;18.118;2023-06-22T01:40:25;35.40;42.80
23311;DHT22;11828;51.508;18.118;2023-06-22T01:42:52;35.30;42.80
23311;DHT22;11828;51.508;18.118;2023-06-22T01:45:19;35.40;42.80
23311;DHT22;11828;51.508;18.118;2023-06-22T01:47:45;35.40;42.80
23311;DHT22;11828;51.508;18.118;2023-06-22T01:50:12;35.30;42.80
23311;DHT22;11828;51.508;18.118;2023-06-22T01:52:38;35.30;42.80
23311;DHT22;11828;51.508;18.118;2023-06-22T01:55:04;35.30;42.80
23311;DHT22;11828;51.508;18.118;2023-06-22T01:57:31;35.20;42.80
23311;DHT22;11828;51.508;18.118;2023-06-22T02:02:33;35.20;42.60
23311;DHT22;11828;51.508;18.118;2023-06-22T02:05:15;35.20;42.60
23311;DHT22;11828;51.508;18.118;2023-06-22T02:07:47;35.20;42.60
23311;DHT22;11828;51.508;18.118;2023-06-22T02:10:20;35.20;42.60
23311;DHT22;11828;51.508;18.118;2023-06-22T02:12:48;35.20;42.50
23311;DHT22;11828;51.508;18.118;2023-06-22T02:15:16;35.20;43.10
23311;DHT22;11828;51.508;18.118;2023-06-22T02:17:42;35.20;42.50
23311;DHT22;11828;51.508;18.118;2023-06-22T02:20:13;35.20;42.60
23311;DHT22;11828;51.508;18.118;2023-06-22T02:22:39;35.10;42.60
23311;DHT22;11828;51.508;18.118;2023-06-22T02:25:07;35.10;42.60
23311;DHT22;11828;51.508;18.118;2023-06-22T02:27:33;35.10;42.60
23311;DHT22;11828;51.508;18.118;2023-06-22T02:29:59;35.10;42.60
23311;DHT22;11828;51.508;18.118;2023-06-22T02:32:25;35.10;42.50
23311;DHT22;11828;51.508;18.118;2023-06-22T02:34:52;35.10;42.50
23311;DHT22;11828;51.508;18.118;2023-06-22T02:37:18;35.10;42.60
23311;DHT22;11828;51.508;18.118;2023-06-22T02:39:45;35.10;42.60
23311;DHT22;11828;51.508;18.118;2023-06-22T02:42:11;35.00;42.60
23311;DHT22;11828;51.508;18.118;2023-06-22T02:44:37;35.00;42.60
23311;DHT22;11828;51.508;18.118;2023-06-22T02:47:03;35.00;42.50
23311;DHT22;11828;51.508;18.118;2023-06-22T02:49:30;35.10;42.60
23311;DHT22;11828;51.508;18.118;2023-06-22T02:51:57;35.00;42.60
23311;DHT22;11828;51.508;18.118;2023-06-22T02:54:23;35.00;42.60
23311;DHT22;11828;51.508;18.118;2023-06-22T02:56:49;35.00;42.60
23311;DHT22;11828;51.508;18.118;2023-06-22T02:59:16;34.90;42.50
23311;DHT22;11828;51.508;18.118;2023-06-22T03:01:43;34.90;42.50
23311;DHT22;11828;51.508;18.118;2023-06-22T03:04:09;34.90;42.50
23311;DHT22;11828;51.508;18.118;2023-06-22T03:06:36;34.90;42.60
23311;DHT22;11828;51.508;18.118;2023-06-22T03:09:04;34.90;42.60
23311;DHT22;11828;51.508;18.118;2023-06-22T03:11:31;35.00;42.80
23311;DHT22;11828;51.508;18.118;2023-06-22T03:13:58;35.00;42.60
23311;DHT22;11828;51.508;18.118;2023-06-22T03:16:25;35.00;42.60
23311;DHT22;11828;51.508;18.118;2023-06-22T03:18:51;35.00;42.60
23311;DHT22;11828;51.508;18.118;2023-06-22T03:21:21;35.10;42.60
23311;DHT22;11828;51.508;18.118;2023-06-22T03:23:48;35.20;42.70
23311;DHT22;11828;51.508;18.118;2023-06-22T03:26:18;35.10;42.80
23311;DHT22;11828;51.508;18.118;2023-06-22T03:28:44;35.20;42.80
23311;DHT22;11828;51.508;18.118;2023-06-22T03:31:10;35.20;42.80
23311;DHT22;11828;51.508;18.118;2023-06-22T03:33:36;35.30;42.80
23311;DHT22;11828;51.508;18.118;2023-06-22T03:36:02;35.30;42.80
23311;DHT22;11828;51.508;18.118;2023-06-22T03:38:29;35.30;42.70
23311;DHT22;11828;51.508;18.118;2023-06-22T03:40:55;35.40;42.60
23311;DHT22;11828;51.508;18.118;2023-06-22T03:43:21;35.40;42.50
23311;DHT22;11828;51.508;18.118;2023-06-22T03:45:48;35.40;42.70
23311;DHT22;11828;51.508;18.118;2023-06-22T03:48:14;35.50;42.40
23311;DHT22;11828;51.508;18.118;2023-06-22T03:50:40;35.50;42.50
23311;DHT22;11828;51.508;18.118;2023-06-22T03:53:06;35.50;42.50
23311;DHT22;11828;51.508;18.118;2023-06-22T03:55:34;35.60;42.50
23311;DHT22;11828;51.508;18.118;2023-06-22T03:58:01;35.70;42.40
23311;DHT22;11828;51.508;18.118;2023-06-22T04:00:32;35.80;42.40
23311;DHT22;11828;51.508;18.118;2023-06-22T04:02:58;35.80;42.20
23311;DHT22;11828;51.508;18.118;2023-06-22T04:05:24;35.90;42.20
23311;DHT22;11828;51.508;18.118;2023-06-22T04:07:50;35.90;42.20
23311;DHT22;11828;51.508;18.118;2023-06-22T04:10:16;36.00;42.20
23311;DHT22;11828;51.508;18.118;2023-06-22T04:12:43;36.00;42.10
23311;DHT22;11828;51.508;18.118;2023-06-22T04:15:09;36.00;42.00
23311;DHT22;11828;51.508;18.118;2023-06-22T04:17:35;36.10;42.00
23311;DHT22;11828;51.508;18.118;2023-06-22T04:20:01;36.10;42.00
23311;DHT22;11828;51.508;18.118;2023-06-22T04:22:29;36.20;42.00
23311;DHT22;11828;51.508;18.118;2023-06-22T04:24:55;36.20;41.90
23311;DHT22;11828;51.508;18.118;2023-06-22T04:27:21;36.30;41.90
23311;DHT22;11828;51.508;18.118;2023-06-22T04:29:48;36.30;41.80
23311;DHT22;11828;51.508;18.118;2023-06-22T04:32:15;36.40;41.90
23311;DHT22;11828;51.508;18.118;2023-06-22T04:34:42;36.40;41.80
23311;DHT22;11828;51.508;18.118;2023-06-22T04:37:08;36.50;41.70
23311;DHT22;11828;51.508;18.118;2023-06-22T04:39:35;36.50;41.60
23311;DHT22;11828;51.508;18.118;2023-06-22T04:42:01;36.50;41.40
23311;DHT22;11828;51.508;18.118;2023-06-22T04:44:28;36.60;41.40
23311;DHT22;11828;51.508;18.118;2023-06-22T04:47:00;36.60;41.40
23311;DHT22;11828;51.508;18.118;2023-06-22T04:49:29;36.60;41.20
23311;DHT22;11828;51.508;18.118;2023-06-22T04:52:00;36.50;41.00
23311;DHT22;11828;51.508;18.118;2023-06-22T04:54:31;36.50;41.00
23311;DHT22;11828;51.508;18.118;2023-06-22T04:57:02;36.50;41.10
23311;DHT22;11828;51.508;18.118;2023-06-22T04:59:31;36.60;41.10
23311;DHT22;11828;51.508;18.118;2023-06-22T05:01:58;36.60;41.00
23311;DHT22;11828;51.508;18.118;2023-06-22T05:04:27;36.60;40.90
23311;DHT22;11828;51.508;18.118;2023-06-22T05:06:54;36.70;41.00
23311;DHT22;11828;51.508;18.118;2023-06-22T05:09:21;36.80;40.80
23311;DHT22;11828;51.508;18.118;2023-06-22T05:11:48;36.80;40.60
23311;DHT22;11828;51.508;18.118;2023-06-22T05:14:14;36.80;40.40
23311;DHT22;11828;51.508;18.118;2023-06-22T05:16:43;36.90;40.30
23311;DHT22;11828;51.508;18.118;2023-06-22T05:19:10;36.90;40.30
23311;DHT22;11828;51.508;18.118;2023-06-22T05:21:37;36.90;40.00
23311;DHT22;11828;51.508;18.118;2023-06-22T05:24:03;37.00;39.70
23311;DHT22;11828;51.508;18.118;2023-06-22T05:26:31;37.00;39.40
23311;DHT22;11828;51.508;18.118;2023-06-22T05:29:00;37.10;38.60
23311;DHT22;11828;51.508;18.118;2023-06-22T05:31:27;37.10;38.30
23311;DHT22;11828;51.508;18.118;2023-06-22T05:33:55;37.00;38.10
23311;DHT22;11828;51.508;18.118;2023-06-22T05:36:22;37.00;38.00
23311;DHT22;11828;51.508;18.118;2023-06-22T05:38:56;37.10;38.10
23311;DHT22;11828;51.508;18.118;2023-06-22T05:41:24;37.20;37.90
23311;DHT22;11828;51.508;18.118;2023-06-22T05:43:49;37.30;37.80
23311;DHT22;11828;51.508;18.118;2023-06-22T05:46:16;37.40;37.10
23311;DHT22;11828;51.508;18.118;2023-06-22T05:48:42;37.50;36.70
23311;DHT22;11828;51.508;18.118;2023-06-22T05:51:09;37.60;36.40
23311;DHT22;11828;51.508;18.118;2023-06-22T05:53:34;37.70;36.20
23311;DHT22;11828;51.508;18.118;2023-06-22T05:56:01;37.70;35.80
23311;DHT22;11828;51.508;18.118;2023-06-22T05:58:27;37.80;35.60
23311;DHT22;11828;51.508;18.118;2023-06-22T06:00:54;37.90;35.50
23311;DHT22;11828;51.508;18.118;2023-06-22T06:03:20;37.90;35.40
23311;DHT22;11828;51.508;18.118;2023-06-22T06:05:46;38.00;35.10
23311;DHT22;11828;51.508;18.118;2023-06-22T06:08:12;38.10;34.50
23311;DHT22;11828;51.508;18.118;2023-06-22T06:10:38;38.10;34.80
23311;DHT22;11828;51.508;18.118;2023-06-22T06:13:05;38.20;34.60
23311;DHT22;11828;51.508;18.118;2023-06-22T06:15:32;38.30;34.40
23311;DHT22;11828;51.508;18.118;2023-06-22T06:17:58;38.40;34.20
23311;DHT22;11828;51.508;18.118;2023-06-22T06:20:26;38.60;34.30
23311;DHT22;11828;51.508;18.118;2023-06-22T06:22:53;38.70;34.00
23311;DHT22;11828;51.508;18.118;2023-06-22T06:25:23;38.80;33.50
23311;DHT22;11828;51.508;18.118;2023-06-22T06:27:51;38.90;33.30
23311;DHT22;11828;51.508;18.118;2023-06-22T06:30:19;38.90;33.20
23311;DHT22;11828;51.508;18.118;2023-06-22T06:32:46;39.00;33.00
23311;DHT22;11828;51.508;18.118;2023-06-22T06:35:14;39.00;33.00
23311;DHT22;11828;51.508;18.118;2023-06-22T06:37:43;39.20;32.60
23311;DHT22;11828;51.508;18.118;2023-06-22T06:40:13;39.30;32.40
23311;DHT22;11828;51.508;18.118;2023-06-22T06:42:44;39.40;32.00
23311;DHT22;11828;51.508;18.118;2023-06-22T06:45:14;39.60;31.70
23311;DHT22;11828;51.508;18.118;2023-06-22T06:47:43;39.70;31.60
23311;DHT22;11828;51.508;18.118;2023-06-22T06:50:10;39.90;31.20
23311;DHT22;11828;51.508;18.118;2023-06-22T06:52:37;39.90;30.90
23311;DHT22;11828;51.508;18.118;2023-06-22T06:55:04;40.00;31.20
23311;DHT22;11828;51.508;18.118;2023-06-22T06:57:34;40.00;30.90
23311;DHT22;11828;51.508;18.118;2023-06-22T07:00:00;40.10;31.00
23311;DHT22;11828;51.508;18.118;2023-06-22T07:02:27;40.20;30.90
23311;DHT22;11828;51.508;18.118;2023-06-22T07:04:55;40.30;30.80
23311;DHT22;11828;51.508;18.118;2023-06-22T07:07:21;40.50;30.70
23311;DHT22;11828;51.508;18.118;2023-06-22T07:09:47;40.70;30.90
23311;DHT22;11828;51.508;18.118;2023-06-22T07:12:14;41.00;30.80
23311;DHT22;11828;51.508;18.118;2023-06-22T07:14:40;41.60;30.50
23311;DHT22;11828;51.508;18.118;2023-06-22T07:17:06;42.30;30.00
23311;DHT22;11828;51.508;18.118;2023-06-22T07:19:33;43.10;29.40
23311;DHT22;11828;51.508;18.118;2023-06-22T07:21:59;44.50;27.10
23311;DHT22;11828;51.508;18.118;2023-06-22T07:24:25;44.60;28.10
23311;DHT22;11828;51.508;18.118;2023-06-22T07:26:51;45.30;27.60
23311;DHT22;11828;51.508;18.118;2023-06-22T07:29:18;45.90;27.20
23311;DHT22;11828;51.508;18.118;2023-06-22T07:31:45;46.60;27.30
23311;DHT22;11828;51.508;18.118;2023-06-22T07:34:12;47.10;26.10
23311;DHT22;11828;51.508;18.118;2023-06-22T07:36:39;47.60;25.70
23311;DHT22;11828;51.508;18.118;2023-06-22T07:39:05;48.00;25.50
23311;DHT22;11828;51.508;18.118;2023-06-22T07:41:31;48.30;25.00
23311;DHT22;11828;51.508;18.118;2023-06-22T07:43:57;48.50;24.60
23311;DHT22;11828;51.508;18.118;2023-06-22T07:46:24;48.80;24.90
23311;DHT22;11828;51.508;18.118;2023-06-22T07:48:50;49.00;24.30
23311;DHT22;11828;51.508;18.118;2023-06-22T07:51:17;49.20;23.80
23311;DHT22;11828;51.508;18.118;2023-06-22T07:53:44;49.30;23.80
23311;DHT22;11828;51.508;18.118;2023-06-22T07:56:11;49.40;23.60
23311;DHT22;11828;51.508;18.118;2023-06-22T07:58:37;49.50;23.40
23311;DHT22;11828;51.508;18.118;2023-06-22T08:01:03;49.70;23.70
23311;DHT22;11828;51.508;18.118;2023-06-22T08:03:29;49.90;23.50
23311;DHT22;11828;51.508;18.118;2023-06-22T08:05:56;50.20;23.30
23311;DHT22;11828;51.508;18.118;2023-06-22T08:08:22;50.60;23.30
23311;DHT22;11828;51.508;18.118;2023-06-22T08:10:48;50.90;23.10
23311;DHT22;11828;51.508;18.118;2023-06-22T08:13:15;51.10;22.60
23311;DHT22;11828;51.508;18.118;2023-06-22T08:15:41;51.20;22.60
23311;DHT22;11828;51.508;18.118;2023-06-22T08:18:07;51.20;22.50
23311;DHT22;11828;51.508;18.118;2023-06-22T08:20:33;51.30;22.50
23311;DHT22;11828;51.508;18.118;2023-06-22T08:22:59;51.50;22.50
23311;DHT22;11828;51.508;18.118;2023-06-22T08:25:32;51.60;23.00
23311;DHT22;11828;51.508;18.118;2023-06-22T08:28:00;51.80;22.30
23311;DHT22;11828;51.508;18.118;2023-06-22T08:30:28;52.00;22.00
23311;DHT22;11828;51.508;18.118;2023-06-22T08:32:54;52.20;21.60
23311;DHT22;11828;51.508;18.118;2023-06-22T08:35:24;52.40;21.50
23311;DHT22;11828;51.508;18.118;2023-06-22T08:37:50;52.50;21.20
23311;DHT22;11828;51.508;18.118;2023-06-22T08:40:21;52.60;20.90
23311;DHT22;11828;51.508;18.118;2023-06-22T08:42:48;52.80;20.90
23311;DHT22;11828;51.508;18.118;2023-06-22T08:45:15;53.00;20.70
23311;DHT22;11828;51.508;18.118;2023-06-22T08:47:42;53.30;20.60
23311;DHT22;11828;51.508;18.118;2023-06-22T08:50:09;53.50;20.10
23311;DHT22;11828;51.508;18.118;2023-06-22T08:52:37;53.60;19.80
23311;DHT22;11828;51.508;18.118;2023-06-22T08:55:04;53.70;19.90
23311;DHT22;11828;51.508;18.118;2023-06-22T08:57:31;53.80;19.80
23311;DHT22;11828;51.508;18.118;2023-06-22T08:59:58;53.90;19.60
23311;DHT22;11828;51.508;18.118;2023-06-22T09:02:25;53.90;19.30
23311;DHT22;11828;51.508;18.118;2023-06-22T09:04:59;54.00;19.50
23311;DHT22;11828;51.508;18.118;2023-06-22T09:07:25;54.00;19.10
23311;DHT22;11828;51.508;18.118;2023-06-22T09:09:51;54.00;18.90
23311;DHT22;11828;51.508;18.118;2023-06-22T09:12:19;53.90;18.80
23311;DHT22;11828;51.508;18.118;2023-06-22T09:14:48;53.90;18.60
23311;DHT22;11828;51.508;18.118;2023-06-22T09:17:14;54.00;18.40
23311;DHT22;11828;51.508;18.118;2023-06-22T09:19:41;54.10;18.20
23311;DHT22;11828;51.508;18.118;2023-06-22T09:22:07;54.10;17.80
23311;DHT22;11828;51.508;18.118;2023-06-22T09:24:33;54.20;18.20
23311;DHT22;11828;51.508;18.118;2023-06-22T09:26:59;54.30;18.30
23311;DHT22;11828;51.508;18.118;2023-06-22T09:29:26;54.30;18.60
23311;DHT22;11828;51.508;18.118;2023-06-22T09:31:52;54.50;18.50
23311;DHT22;11828;51.508;18.118;2023-06-22T09:34:19;54.40;18.40
23311;DHT22;11828;51.508;18.118;2023-06-22T09:36:49;54.30;18.50
23311;DHT22;11828;51.508;18.118;2023-06-22T09:39:15;54.40;18.10
23311;DHT22;11828;51.508;18.118;2023-06-22T09:41:41;54.30;18.10
23311;DHT22;11828;51.508;18.118;2023-06-22T09:44:07;54.30;18.10
23311;DHT22;11828;51.508;18.118;2023-06-22T09:46:33;54.50;18.10
23311;DHT22;11828;51.508;18.118;2023-06-22T09:48:59;54.70;17.90
23311;DHT22;11828;51.508;18.118;2023-06-22T09:51:25;55.00;17.70
23311;DHT22;11828;51.508;18.118;2023-06-22T09:53:52;55.30;17.40
23311;DHT22;11828;51.508;18.118;2023-06-22T09:56:19;55.50;17.30
23311;DHT22;11828;51.508;18.118;2023-06-22T09:58:46;55.60;17.10
23311;DHT22;11828;51.508;18.118;2023-06-22T10:01:13;55.70;16.60
23311;DHT22;11828;51.508;18.118;2023-06-22T10:03:42;55.60;16.40
23311;DHT22;11828;51.508;18.118;2023-06-22T10:06:08;55.50;16.50
23311;DHT22;11828;51.508;18.118;2023-06-22T10:08:35;55.30;16.50
23311;DHT22;11828;51.508;18.118;2023-06-22T10:11:02;55.30;16.60
23311;DHT22;11828;51.508;18.118;2023-06-22T10:13:29;55.30;16.70
23311;DHT22;11828;51.508;18.118;2023-06-22T10:18:22;55.70;16.00
23311;DHT22;11828;51.508;18.118;2023-06-22T10:20:49;55.60;16.40
23311;DHT22;11828;51.508;18.118;2023-06-22T10:25:45;55.30;14.60
23311;DHT22;11828;51.508;18.118;2023-06-22T10:28:11;55.20;14.80
23311;DHT22;11828;51.508;18.118;2023-06-22T10:30:41;55.00;14.50
23311;DHT22;11828;51.508;18.118;2023-06-22T10:33:08;54.70;14.00
23311;DHT22;11828;51.508;18.118;2023-06-22T10:35:35;54.50;14.20
23311;DHT22;11828;51.508;18.118;2023-06-22T10:40:30;53.90;13.60
23311;DHT22;11828;51.508;18.118;2023-06-22T10:42:57;53.50;14.30
23311;DHT22;11828;51.508;18.118;2023-06-22T10:45:23;53.20;14.50
23311;DHT22;11828;51.508;18.118;2023-06-22T10:50:16;52.60;14.30
23311;DHT22;11828;51.508;18.118;2023-06-22T10:52:42;52.40;14.80
23311;DHT22;11828;51.508;18.118;2023-06-22T10:55:09;52.20;14.90
23311;DHT22;11828;51.508;18.118;2023-06-22T10:57:36;52.10;14.80
23311;DHT22;11828;51.508;18.118;2023-06-22T11:00:05;52.00;14.70
23311;DHT22;11828;51.508;18.118;2023-06-22T11:02:32;52.00;14.90
23311;DHT22;11828;51.508;18.118;2023-06-22T11:04:58;51.90;14.90
23311;DHT22;11828;51.508;18.118;2023-06-22T11:07:26;52.00;15.10
23311;DHT22;11828;51.508;18.118;2023-06-22T11:09:55;51.90;15.10
23311;DHT22;11828;51.508;18.118;2023-06-22T11:12:21;51.70;15.20
23311;DHT22;11828;51.508;18.118;2023-06-22T11:14:48;51.40;15.30
23311;DHT22;11828;51.508;18.118;2023-06-22T11:17:16;51.20;15.50
23311;DHT22;11828;51.508;18.118;2023-06-22T11:19:42;50.90;15.40
23311;DHT22;11828;51.508;18.118;2023-06-22T11:22:09;50.90;15.60
23311;DHT22;11828;51.508;18.118;2023-06-22T11:24:35;50.70;15.70
23311;DHT22;11828;51.508;18.118;2023-06-22T11:27:01;50.80;15.00
23311;DHT22;11828;51.508;18.118;2023-06-22T11:29:27;50.70;15.80
23311;DHT22;11828;51.508;18.118;2023-06-22T11:31:54;50.60;15.20
23311;DHT22;11828;51.508;18.118;2023-06-22T11:34:20;50.40;15.70
23311;DHT22;11828;51.508;18.118;2023-06-22T11:36:46;50.30;15.80
23311;DHT22;11828;51.508;18.118;2023-06-22T11:39:13;50.40;16.00
23311;DHT22;11828;51.508;18.118;2023-06-22T11:41:41;50.40;16.00
23311;DHT22;11828;51.508;18.118;2023-06-22T11:44:07;50.30;15.90
23311;DHT22;11828;51.508;18.118;2023-06-22T11:46:34;50.10;16.10
23311;DHT22;11828;51.508;18.118;2023-06-22T11:49:01;50.00;16.30
23311;DHT22;11828;51.508;18.118;2023-06-22T11:51:28;50.00;16.20
23311;DHT22;11828;51.508;18.118;2023-06-22T11:53:57;50.00;16.30
23311;DHT22;11828;51.508;18.118;2023-06-22T11:56:23;50.10;16.40
23311;DHT22;11828;51.508;18.118;2023-06-22T11:58:49;50.20;16.30
23311;DHT22;11828;51.508;18.118;2023-06-22T12:01:15;50.10;16.40
23311;DHT22;11828;51.508;18.118;2023-06-22T12:03:41;50.20;16.50
23311;DHT22;11828;51.508;18.118;2023-06-22T12:06:09;50.20;16.50
23311;DHT22;11828;51.508;18.118;2023-06-22T12:08:35;50.30;16.70
23311;DHT22;11828;51.508;18.118;2023-06-22T12:11:01;50.20;16.50
23311;DHT22;11828;51.508;18.118;2023-06-22T12:13:27;50.30;16.10
23311;DHT22;11828;51.508;18.118;2023-06-22T12:15:54;50.30;16.40
23311;DHT22;11828;51.508;18.118;2023-06-22T12:18:20;50.30;16.60
23311;DHT22;11828;51.508;18.118;2023-06-22T12:20:49;50.40;16.60
23311;DHT22;11828;51.508;18.118;2023-06-22T12:23:15;50.40;16.60
23311;DHT22;11828;51.508;18.118;2023-06-22T12:25:41;50.50;16.60
23311;DHT22;11828;51.508;18.118;2023-06-22T12:28:07;50.40;16.50
23311;DHT22;11828;51.508;18.118;2023-06-22T12:30:34;50.30;16.70
23311;DHT22;11828;51.508;18.118;2023-06-22T12:33:00;50.30;16.60
23311;DHT22;11828;51.508;18.118;2023-06-22T12:35:26;50.30;16.70
23311;DHT22;11828;51.508;18.118;2023-06-22T12:37:53;50.10;17.20
23311;DHT22;11828;51.508;18.118;2023-06-22T12:40:19;50.00;16.80
23311;DHT22;11828;51.508;18.118;2023-06-22T12:42:45;49.90;16.40
23311;DHT22;11828;51.508;18.118;2023-06-22T12:45:12;49.70;16.50
23311;DHT22;11828;51.508;18.118;2023-06-22T12:47:38;49.70;16.80
23311;DHT22;11828;51.508;18.118;2023-06-22T12:50:04;49.60;16.90
23311;DHT22;11828;51.508;18.118;2023-06-22T12:52:31;49.60;16.90
23311;DHT22;11828;51.508;18.118;2023-06-22T12:54:58;49.70;17.10
23311;DHT22;11828;51.508;18.118;2023-06-22T12:57:24;49.70;17.10
23311;DHT22;11828;51.508;18.118;2023-06-22T12:59:51;49.70;17.10
23311;DHT22;11828;51.508;18.118;2023-06-22T13:02:17;49.70;17.00
23311;DHT22;11828;51.508;18.118;2023-06-22T13:04:43;49.70;16.90
23311;DHT22;11828;51.508;18.118;2023-06-22T13:07:09;49.70;16.90
23311;DHT22;11828;51.508;18.118;2023-06-22T13:09:36;49.70;16.80
23311;DHT22;11828;51.508;18.118;2023-06-22T13:12:02;49.70;17.00
23311;DHT22;11828;51.508;18.118;2023-06-22T13:14:29;49.80;17.00
23311;DHT22;11828;51.508;18.118;2023-06-22T13:16:55;49.80;16.90
23311;DHT22;11828;51.508;18.118;2023-06-22T13:19:21;49.80;16.90
23311;DHT22;11828;51.508;18.118;2023-06-22T13:21:47;49.80;16.80
23311;DHT22;11828;51.508;18.118;2023-06-22T13:24:14;49.80;16.50
23311;DHT22;11828;51.508;18.118;2023-06-22T13:26:40;49.90;16.70
23311;DHT22;11828;51.508;18.118;2023-06-22T13:29:06;49.80;16.70
23311;DHT22;11828;51.508;18.118;2023-06-22T13:31:32;49.70;16.80
23311;DHT22;11828;51.508;18.118;2023-06-22T13:33:58;49.60;16.80
23311;DHT22;11828;51.508;18.118;2023-06-22T13:36:24;49.60;17.10
23311;DHT22;11828;51.508;18.118;2023-06-22T13:38:51;49.80;17.20
23311;DHT22;11828;51.508;18.118;2023-06-22T13:41:17;50.00;16.80
23311;DHT22;11828;51.508;18.118;2023-06-22T13:43:43;50.20;16.90
23311;DHT22;11828;51.508;18.118;2023-06-22T13:46:09;50.50;16.50
23311;DHT22;11828;51.508;18.118;2023-06-22T13:48:35;50.70;16.30
23311;DHT22;11828;51.508;18.118;2023-06-22T13:51:02;51.00;16.10
23311;DHT22;11828;51.508;18.118;2023-06-22T13:53:28;51.30;16.00
23311;DHT22;11828;51.508;18.118;2023-06-22T13:55:54;51.50;16.00
23311;DHT22;11828;51.508;18.118;2023-06-22T13:58:20;51.60;15.90
23311;DHT22;11828;51.508;18.118;2023-06-22T14:00:46;51.60;15.70
23311;DHT22;11828;51.508;18.118;2023-06-22T14:03:13;51.70;15.60
23311;DHT22;11828;51.508;18.118;2023-06-22T14:05:42;51.90;15.70
23311;DHT22;11828;51.508;18.118;2023-06-22T14:08:08;52.10;15.80
23311;DHT22;11828;51.508;18.118;2023-06-22T14:10:36;52.20;15.60
23311;DHT22;11828;51.508;18.118;2023-06-22T14:13:02;52.30;15.70
23311;DHT22;11828;51.508;18.118;2023-06-22T14:15:31;52.20;15.70
23311;DHT22;11828;51.508;18.118;2023-06-22T14:17:58;52.30;15.50
23311;DHT22;11828;51.508;18.118;2023-06-22T14:20:24;52.20;15.50
23311;DHT22;11828;51.508;18.118;2023-06-22T14:22:50;52.10;15.60
23311;DHT22;11828;51.508;18.118;2023-06-22T14:25:16;52.00;15.60
23311;DHT22;11828;51.508;18.118;2023-06-22T14:27:42;52.00;15.80
23311;DHT22;11828;51.508;18.118;2023-06-22T14:30:10;52.00;15.70
23311;DHT22;11828;51.508;18.118;2023-06-22T14:32:37;52.00;15.70
23311;DHT22;11828;51.508;18.118;2023-06-22T14:35:03;51.50;15.70
23311;DHT22;11828;51.508;18.118;2023-06-22T14:37:30;51.10;16.50
23311;DHT22;11828;51.508;18.118;2023-06-22T14:39:56;50.60;16.00
23311;DHT22;11828;51.508;18.118;2023-06-22T14:42:23;50.10;16.30
23311;DHT22;11828;51.508;18.118;2023-06-22T14:44:52;49.70;16.50
23311;DHT22;11828;51.508;18.118;2023-06-22T14:47:18;49.50;16.50
23311;DHT22;11828;51.508;18.118;2023-06-22T14:49:44;49.30;16.50
23311;DHT22;11828;51.508;18.118;2023-06-22T14:52:11;49.00;16.70
23311;DHT22;11828;51.508;18.118;2023-06-22T14:54:39;48.90;16.90
23311;DHT22;11828;51.508;18.118;2023-06-22T14:57:06;48.90;16.80
23311;DHT22;11828;51.508;18.118;2023-06-22T14:59:32;48.90;16.90
23311;DHT22;11828;51.508;18.118;2023-06-22T15:01:58;48.80;16.80
23311;DHT22;11828;51.508;18.118;2023-06-22T15:04:24;48.60;16.80
23311;DHT22;11828;51.508;18.118;2023-06-22T15:06:53;48.20;16.80
23311;DHT22;11828;51.508;18.118;2023-06-22T15:09:19;47.90;17.10
23311;DHT22;11828;51.508;18.118;2023-06-22T15:11:45;47.60;17.20
23311;DHT22;11828;51.508;18.118;2023-06-22T15:14:13;47.20;17.70
23311;DHT22;11828;51.508;18.118;2023-06-22T15:16:40;46.90;17.70
23311;DHT22;11828;51.508;18.118;2023-06-22T15:19:06;46.70;17.90
23311;DHT22;11828;51.508;18.118;2023-06-22T15:21:32;46.40;18.00
23311;DHT22;11828;51.508;18.118;2023-06-22T15:23:59;46.20;18.10
23311;DHT22;11828;51.508;18.118;2023-06-22T15:26:25;46.00;18.40
23311;DHT22;11828;51.508;18.118;2023-06-22T15:28:51;45.80;18.50
23311;DHT22;11828;51.508;18.118;2023-06-22T15:31:17;45.60;18.60
23311;DHT22;11828;51.508;18.118;2023-06-22T15:33:43;45.40;18.50
23311;DHT22;11828;51.508;18.118;2023-06-22T15:36:10;45.20;19.00
23311;DHT22;11828;51.508;18.118;2023-06-22T15:38:36;45.00;19.00
23311;DHT22;11828;51.508;18.118;2023-06-22T15:41:02;44.80;19.20